createdAt,value
2022-08-18T00:39:56.564Z,88.3
2022-08-18T00:41:56.511Z,88.5
2022-08-18T00:43:56.507Z,88.6
2022-08-18T00:45:56.521Z,88.8
2022-08-18T00:47:33.224Z,89
2022-08-18T00:49:20.274Z,89.2
2022-08-18T00:51:20.305Z,89.4
2022-08-18T00:51:50.441Z,89.4
2022-08-18T00:53:17.004Z,89.3
2022-08-18T00:55:17.007Z,89.3
2022-08-18T00:55:59.240Z,89.6
2022-08-18T00:57:59.236Z,89.4
2022-08-18T01:00:17.510Z,89.6
2022-08-18T01:02:17.534Z,90
2022-08-18T01:04:17.529Z,89.8
2022-08-18T01:06:17.522Z,89.2
2022-08-18T01:08:20.067Z,89.4
2022-08-18T01:10:17.527Z,89.1
2022-08-18T01:12:44.705Z,89.1
2022-08-18T01:14:30.547Z,89.2
2022-08-18T01:16:30.621Z,89.2
2022-08-18T01:18:30.558Z,89
2022-08-18T01:20:30.543Z,89
2022-08-18T01:22:37.407Z,88.9
2022-08-18T01:24:37.407Z,88.8
2022-08-18T01:26:37.405Z,88.9
2022-08-18T01:28:37.414Z,88.8
2022-08-18T01:30:37.408Z,88.9
2022-08-18T01:31:54.289Z,88.8
2022-08-18T01:33:50.020Z,89.1
2022-08-18T01:35:50.017Z,89.1
2022-08-18T01:37:50.192Z,88.8
2022-08-18T01:41:00.711Z,89.3
2022-08-18T01:41:50.096Z,89.1
2022-08-18T01:43:50.049Z,88.8
2022-08-18T01:45:50.037Z,88.7
2022-08-18T01:47:50.051Z,89
2022-08-18T01:49:50.056Z,88.9
2022-08-18T01:51:50.056Z,89.5
2022-08-18T01:53:50.232Z,89.7
2022-08-18T01:55:50.063Z,89.4
2022-08-18T01:57:50.275Z,89.9
2022-08-18T01:59:50.081Z,90
2022-08-18T02:01:53.230Z,90.5
2022-08-18T02:03:50.095Z,90.6
2022-08-18T02:05:50.088Z,90.9
2022-08-18T02:07:53.486Z,91
2022-08-18T02:09:51.051Z,90.7
2022-08-18T02:11:50.105Z,91.2
2022-08-18T02:13:50.110Z,91.3
2022-08-18T02:15:50.102Z,91.1
2022-08-18T02:17:50.295Z,91.6
2022-08-18T02:19:50.112Z,91.8
2022-08-18T02:21:50.116Z,91.9
2022-08-18T02:23:53.112Z,92.2
2022-08-18T02:25:50.127Z,92.6
2022-08-18T02:27:50.334Z,92.8
2022-08-18T02:29:50.123Z,92.5
2022-08-18T02:31:50.132Z,92.6
2022-08-18T02:33:51.578Z,92.7
2022-08-18T02:35:50.143Z,92.5
2022-08-18T02:37:50.203Z,92.6
2022-08-18T02:39:50.217Z,92.5
2022-08-18T02:41:50.155Z,92.5
2022-08-18T02:43:50.173Z,92.3
2022-08-18T02:45:50.164Z,92.3
2022-08-18T02:47:50.334Z,92.2
2022-08-18T02:49:50.175Z,92.3
2022-08-18T02:51:50.181Z,92.3
2022-08-18T02:53:50.202Z,92.3
2022-08-18T02:55:50.205Z,92.1
2022-08-18T02:57:50.262Z,92
2022-08-18T02:59:50.226Z,92.1
2022-08-18T03:01:50.334Z,92.2
2022-08-18T03:03:50.240Z,92.3
2022-08-18T03:05:50.243Z,92.2
2022-08-18T03:07:50.559Z,92.1
2022-08-18T03:09:50.251Z,92.3
2022-08-18T03:11:50.254Z,92.2
2022-08-18T03:13:50.267Z,92.4
2022-08-18T03:15:54.739Z,92.5
2022-08-18T03:17:50.338Z,92.5
2022-08-18T03:19:50.274Z,92.6
2022-08-18T03:21:50.282Z,92.8
2022-08-18T03:23:57.338Z,93
2022-08-18T03:25:50.287Z,93
2022-08-18T03:27:50.492Z,92.9
2022-08-18T03:29:50.293Z,93
2022-08-18T03:31:50.298Z,93
2022-08-18T03:33:50.309Z,93.1
2022-08-18T03:35:50.302Z,93.2
2022-08-18T03:37:50.530Z,93.1
2022-08-18T03:39:50.366Z,93.4
2022-08-18T03:41:59.359Z,93.3
2022-08-18T03:43:51.763Z,93.5
2022-08-18T03:45:50.351Z,93.3
2022-08-18T03:47:50.392Z,93.5
2022-08-18T03:49:50.373Z,93.7
2022-08-18T03:51:50.380Z,93.7
2022-08-18T03:53:50.409Z,93.6
2022-08-18T03:55:50.391Z,93.8
2022-08-18T03:57:50.604Z,93.9
2022-08-18T03:59:50.394Z,93.8
2022-08-18T04:01:50.466Z,93.9
2022-08-18T04:03:50.435Z,93.8
2022-08-18T04:05:50.415Z,94
2022-08-18T04:07:50.498Z,93.8
2022-08-18T04:09:50.422Z,93.7
2022-08-18T04:11:50.428Z,93.9
2022-08-18T04:13:50.435Z,93.8
2022-08-18T04:15:50.430Z,93.7
2022-08-18T04:18:06.318Z,93.9
2022-08-18T04:19:50.434Z,94
2022-08-18T04:21:50.440Z,94.1
2022-08-18T04:23:50.446Z,94
2022-08-18T04:25:50.447Z,94.3
2022-08-18T04:27:50.623Z,94.1
2022-08-18T04:29:50.461Z,94
2022-08-18T04:31:50.511Z,94
2022-08-18T04:33:50.477Z,94.1
2022-08-18T04:35:50.469Z,94.1
2022-08-18T04:37:50.543Z,94
2022-08-18T04:39:50.526Z,94
2022-08-18T04:41:50.496Z,94.1
2022-08-18T04:43:50.519Z,94
2022-08-18T04:45:50.512Z,94
2022-08-18T04:47:50.596Z,94
2022-08-18T04:49:50.529Z,93.8
2022-08-18T04:52:22.369Z,93.9
2022-08-18T04:53:50.546Z,93.8
2022-08-18T04:55:50.547Z,93.7
2022-08-18T04:57:50.672Z,93.7
2022-08-18T04:59:50.563Z,93.7
2022-08-18T05:01:50.565Z,93.7
2022-08-18T05:03:50.672Z,93.6
2022-08-18T05:05:50.573Z,93.5
2022-08-18T05:07:50.666Z,93.5
2022-08-18T05:09:50.572Z,93.5
2022-08-18T05:11:50.752Z,93.6
2022-08-18T05:13:50.596Z,93.5
2022-08-18T05:16:09.325Z,93.6
2022-08-18T05:17:51.115Z,93.5
2022-08-18T05:19:50.594Z,93.6
2022-08-18T05:21:51.299Z,93.4
2022-08-18T05:23:50.614Z,93.4
2022-08-18T05:25:50.635Z,93.3
2022-08-18T05:27:50.732Z,93.1
2022-08-18T05:29:51.711Z,93
2022-08-18T05:31:50.625Z,92.9
2022-08-18T05:33:50.638Z,92.7
2022-08-18T05:35:50.679Z,92.6
2022-08-18T05:37:50.790Z,92.4
2022-08-18T05:39:50.701Z,92.3
2022-08-18T05:41:50.678Z,92
2022-08-18T05:43:51.072Z,91.9
2022-08-18T05:45:50.691Z,91.8
2022-08-18T05:47:50.852Z,91.6
2022-08-18T05:49:50.702Z,91.3
2022-08-18T05:51:50.701Z,91.2
2022-08-18T05:53:50.722Z,91
2022-08-18T05:55:50.722Z,90.4
2022-08-18T05:57:50.851Z,90.2
2022-08-18T05:59:50.741Z,89.7
2022-08-18T06:01:50.743Z,89.1
2022-08-18T06:03:50.775Z,88.9
2022-08-18T06:05:50.747Z,88.4
2022-08-18T06:07:50.923Z,88.2
2022-08-18T06:09:50.765Z,87.3
2022-08-18T06:11:50.772Z,86.9
2022-08-18T06:13:51.662Z,86.8
2022-08-18T06:15:50.785Z,86
2022-08-18T06:17:50.996Z,85.1
2022-08-18T06:19:50.791Z,84.7
2022-08-18T06:21:50.799Z,84.1
2022-08-18T06:23:50.828Z,83.2
2022-08-18T06:25:50.817Z,82
2022-08-18T06:27:51.004Z,81
2022-08-18T06:29:50.842Z,80.4
2022-08-18T06:31:50.850Z,80.1
2022-08-18T06:33:50.870Z,79.1
2022-08-18T06:35:51.001Z,79
2022-08-18T06:37:51.021Z,78.5
2022-08-18T06:39:50.961Z,78.2
2022-08-18T06:41:50.896Z,77.4
2022-08-18T06:43:50.911Z,76.3
2022-08-18T06:45:50.907Z,75.9
2022-08-18T06:47:51.141Z,75.1
2022-08-18T06:49:50.926Z,74.6
2022-08-18T06:51:50.928Z,74.7
2022-08-18T06:53:50.967Z,74.9
2022-08-18T06:55:50.949Z,75.1
2022-08-18T06:57:51.064Z,74.7
2022-08-18T06:59:50.952Z,74.4
2022-08-18T07:01:50.966Z,74.8
2022-08-18T07:03:51.069Z,74.6
2022-08-18T07:05:50.979Z,74.4
2022-08-18T07:07:51.085Z,73.1
2022-08-18T07:09:50.986Z,72.7
2022-08-18T07:11:50.983Z,72.1
2022-08-18T07:14:03.558Z,71.8
2022-08-18T07:15:51.004Z,71.8
2022-08-18T07:17:51.005Z,70.8
2022-08-18T07:19:51.018Z,70.2
2022-08-18T07:21:51.027Z,70.6
2022-08-18T07:24:07.805Z,71
2022-08-18T07:25:51.044Z,70.9
2022-08-18T07:27:51.197Z,70.3
2022-08-18T07:29:51.065Z,69.2
2022-08-18T07:31:51.075Z,69.2
2022-08-18T07:33:51.093Z,69.3
2022-08-18T07:35:51.093Z,68.3
2022-08-18T07:37:51.294Z,67.9
2022-08-18T07:39:51.189Z,67.6
2022-08-18T07:41:51.119Z,67.5
2022-08-18T07:43:51.141Z,66.1
2022-08-18T07:45:51.138Z,65.1
2022-08-18T07:47:51.359Z,63.1
2022-08-18T07:50:13.794Z,63.5
2022-08-18T07:51:52.140Z,63.2
2022-08-18T07:53:54.882Z,61.7
2022-08-18T07:55:51.177Z,61.4
2022-08-18T07:57:51.179Z,60.7
2022-08-18T07:59:51.177Z,61
2022-08-18T08:01:51.228Z,60.3
2022-08-18T08:03:51.195Z,59.7
2022-08-18T08:05:51.194Z,60.5
2022-08-18T08:07:51.355Z,60.1
2022-08-18T08:09:52.006Z,61.4
2022-08-18T08:11:51.212Z,62
2022-08-18T08:13:55.535Z,62.6
2022-08-18T08:15:51.235Z,62.8
2022-08-18T08:17:51.366Z,62.3
2022-08-18T08:20:06.478Z,62
2022-08-18T08:21:52.750Z,61.6
2022-08-18T08:23:51.260Z,61.5
2022-08-18T08:25:51.331Z,61.4
2022-08-18T08:27:51.460Z,61.1
2022-08-18T08:29:51.270Z,60.5
2022-08-18T08:31:51.275Z,60.4
2022-08-18T08:33:51.288Z,59.8
2022-08-18T08:35:51.286Z,60.2
2022-08-18T08:37:51.414Z,59.8
2022-08-18T08:39:51.382Z,60.5
2022-08-18T08:41:51.386Z,61.7
2022-08-18T08:43:51.321Z,62.8
2022-08-18T08:45:51.370Z,63.6
2022-08-18T08:47:51.519Z,64.7
2022-08-18T08:49:54.821Z,65.6
2022-08-18T08:51:51.342Z,66.2
2022-08-18T08:53:51.350Z,66.5
2022-08-18T08:55:51.414Z,66
2022-08-18T08:57:51.507Z,64.8
2022-08-18T08:59:51.352Z,63.6
2022-08-18T09:01:51.465Z,63.6
2022-08-18T09:03:51.384Z,64.1
2022-08-18T09:05:56.249Z,64.9
2022-08-18T09:07:51.384Z,65.1
2022-08-18T09:09:51.392Z,64.7
2022-08-18T09:11:51.405Z,65.3
2022-08-18T09:13:51.411Z,65.5
2022-08-18T09:15:51.558Z,65.2
2022-08-18T09:17:51.413Z,64.5
2022-08-18T09:19:51.414Z,63.8
2022-08-18T09:21:51.428Z,64.1
2022-08-18T09:23:51.445Z,62.1
2022-08-18T09:25:51.475Z,61.9
2022-08-18T09:28:10.261Z,61.7
2022-08-18T09:29:51.453Z,60.8
2022-08-18T09:31:51.463Z,60.5
2022-08-18T09:33:51.477Z,60.1
2022-08-18T09:35:52.149Z,59.8
2022-08-18T09:37:51.473Z,59.3
2022-08-18T09:39:54.030Z,59.7
2022-08-18T09:41:51.488Z,60.6
2022-08-18T09:43:51.492Z,60.6
2022-08-18T09:45:51.541Z,60.7
2022-08-18T09:47:51.496Z,61.5
2022-08-18T09:49:53.088Z,62.3
2022-08-18T09:51:51.511Z,62.6
2022-08-18T09:53:51.528Z,62.9
2022-08-18T09:55:51.901Z,63.4
2022-08-18T09:57:51.528Z,63
2022-08-18T09:59:51.540Z,62.3
2022-08-18T10:01:52.190Z,62.7
2022-08-18T10:03:51.555Z,62.7
2022-08-18T10:05:51.547Z,63.1
2022-08-18T10:07:51.554Z,64
2022-08-18T10:09:51.560Z,64.4
2022-08-18T10:11:52.167Z,64.1
2022-08-18T10:13:51.582Z,64.2
2022-08-18T10:15:51.584Z,64.5
2022-08-18T10:17:51.588Z,64
2022-08-18T10:19:52.001Z,63.3
2022-08-18T10:21:53.815Z,62.7
2022-08-18T10:24:03.082Z,62
2022-08-18T10:25:51.614Z,61.9
2022-08-18T10:27:51.620Z,62.3
2022-08-18T10:29:51.623Z,62.4
2022-08-18T10:31:54.142Z,62.4
2022-08-18T10:33:51.645Z,61.9
2022-08-18T10:35:51.639Z,60.9
2022-08-18T10:37:51.645Z,60.7
2022-08-18T10:39:51.688Z,59.2
2022-08-18T10:41:54.211Z,58.4
2022-08-18T10:43:56.135Z,58.8
2022-08-18T10:47:51.666Z,59
2022-08-18T10:49:51.675Z,59.9
2022-08-18T10:52:00.237Z,59.7
2022-08-18T10:53:51.717Z,59.1
2022-08-18T10:55:51.792Z,57.2
2022-08-18T10:57:51.697Z,56.8
2022-08-18T10:59:54.609Z,55.8
2022-08-18T11:01:51.708Z,54.5
2022-08-18T11:03:55.614Z,54.4
2022-08-18T11:05:51.722Z,53.2
2022-08-18T11:07:53.437Z,53.1
2022-08-18T11:10:04.309Z,52.7
2022-08-18T11:13:51.737Z,52.5
2022-08-18T11:15:51.743Z,52.1
2022-08-18T11:17:51.750Z,51
2022-08-18T11:19:51.753Z,50.9
2022-08-18T11:21:51.998Z,51.1
2022-08-18T11:23:51.770Z,50.6
2022-08-18T11:25:51.773Z,51.2
2022-08-18T11:27:51.774Z,51.5
2022-08-18T11:29:51.776Z,50.8
2022-08-18T11:31:52.508Z,51.6
2022-08-18T11:33:51.788Z,51.5
2022-08-18T11:35:51.794Z,52.4
2022-08-18T11:37:53.617Z,51.3
2022-08-18T11:39:51.849Z,51.6
2022-08-18T11:41:51.845Z,51.5
2022-08-18T11:43:51.811Z,51.8
2022-08-18T11:45:51.815Z,52.7
2022-08-18T11:47:51.826Z,52.3
2022-08-18T11:49:51.825Z,52.2
2022-08-18T11:51:51.825Z,52.4
2022-08-18T11:57:51.844Z,51.9
2022-08-18T11:59:54.115Z,52.7
2022-08-18T12:01:51.846Z,52.1
2022-08-18T12:03:51.855Z,51.6
2022-08-18T12:05:54.257Z,51.4
2022-08-18T12:07:57.288Z,51.9
2022-08-18T12:10:16.198Z,51.6
2022-08-18T12:11:51.863Z,51.2
2022-08-18T12:13:51.863Z,51.4
2022-08-18T12:15:51.869Z,52
2022-08-18T12:19:51.913Z,51.6
2022-08-18T12:21:51.874Z,52
2022-08-18T12:23:52.378Z,49
2022-08-18T12:25:52.082Z,49.8
2022-08-18T12:27:51.883Z,50.4
2022-08-18T12:29:51.879Z,50.5
2022-08-18T12:31:51.885Z,50
2022-08-18T12:35:51.896Z,51.4
2022-08-18T12:37:59.330Z,50.7
2022-08-18T12:39:52.009Z,50.9
2022-08-18T12:41:51.899Z,51.1
2022-08-18T12:43:58.316Z,51.4
2022-08-18T12:45:51.909Z,51.1
2022-08-18T12:47:52.660Z,50.7
2022-08-18T12:49:51.909Z,51.5
2022-08-18T12:51:51.911Z,50.8
2022-08-18T12:53:58.088Z,51.3
2022-08-18T12:55:51.917Z,51.3
2022-08-18T12:59:51.917Z,50.7
2022-08-18T13:01:51.921Z,52
2022-08-18T13:03:52.548Z,51.9
2022-08-18T13:05:51.934Z,48.7
2022-08-18T13:07:52.087Z,48.8
2022-08-18T13:09:53.456Z,49.2
2022-08-18T13:11:51.953Z,50.1
2022-08-18T13:13:52.836Z,50.4
2022-08-18T13:15:55.730Z,49.9
2022-08-18T13:17:52.043Z,49.6
2022-08-18T13:19:51.995Z,50.1
2022-08-18T13:21:51.987Z,48.8
2022-08-18T13:23:51.991Z,48.6
2022-08-18T13:25:51.990Z,49.2
2022-08-18T13:27:52.059Z,49.1
2022-08-18T13:29:51.997Z,49.4
2022-08-18T13:31:55.695Z,49.6
2022-08-18T13:33:53.712Z,49.8
2022-08-18T13:35:52.492Z,49.5
2022-08-18T13:37:51.998Z,49.1
2022-08-18T13:39:52.853Z,49.4
2022-08-18T13:41:52.002Z,49.6
2022-08-18T13:43:52.293Z,50
2022-08-18T13:45:53.160Z,49.6
2022-08-18T13:47:52.055Z,49.7
2022-08-18T13:49:58.422Z,49.9
2022-08-18T13:51:52.010Z,50.2
2022-08-18T13:54:06.575Z,50.6
2022-08-18T13:55:52.008Z,51.3
2022-08-18T13:57:53.483Z,52.3
2022-08-18T13:59:52.010Z,52.5
2022-08-18T14:01:52.841Z,52.9
2022-08-18T14:03:52.007Z,53.5
2022-08-18T14:05:52.863Z,53.1
2022-08-18T14:07:52.189Z,53.2
2022-08-18T14:09:52.016Z,53
2022-08-18T14:11:52.015Z,53.3
2022-08-18T14:13:52.016Z,53.5
2022-08-18T14:15:53.793Z,53.9
2022-08-18T14:17:52.222Z,54.4
2022-08-18T14:19:52.023Z,54.3
2022-08-18T14:21:52.025Z,54.1
2022-08-18T14:23:53.198Z,54.5
2022-08-18T14:25:52.023Z,54.5
2022-08-18T14:27:56.370Z,54.7
2022-08-18T14:29:52.022Z,55.2
2022-08-18T14:31:52.378Z,55.7
2022-08-18T14:33:53.662Z,55.9
2022-08-18T14:36:04.901Z,56
2022-08-18T14:37:52.210Z,56.4
2022-08-18T14:39:53.756Z,56.8
2022-08-18T14:41:54.848Z,56.4
2022-08-18T14:44:11.013Z,56.5
2022-08-18T14:45:52.019Z,56.5
2022-08-18T14:47:52.137Z,56.7
2022-08-18T14:49:52.018Z,56.8
2022-08-18T14:51:52.020Z,56.8
2022-08-18T14:53:52.678Z,56.7
2022-08-18T14:55:52.020Z,56.8
2022-08-18T14:57:52.170Z,56.7
2022-08-18T14:59:52.025Z,56.3
2022-08-18T15:01:52.023Z,56.5
2022-08-18T15:03:52.025Z,56.1
2022-08-18T15:05:52.031Z,55.9
2022-08-18T15:07:52.299Z,56.1
2022-08-18T15:09:52.030Z,56
2022-08-18T15:11:52.373Z,55.8
2022-08-18T15:13:55.002Z,55.5
2022-08-18T15:15:52.189Z,55.5
2022-08-18T15:17:52.899Z,55.5
2022-08-18T15:19:58.467Z,55.8
2022-08-18T15:21:52.025Z,56
2022-08-18T15:23:54.949Z,56.1
2022-08-18T15:25:52.033Z,56.1
2022-08-18T15:27:52.222Z,56.3
2022-08-18T15:29:52.038Z,56.5
2022-08-18T15:31:52.115Z,56.4
2022-08-18T15:33:52.040Z,56.5
2022-08-18T15:35:52.046Z,56.7
2022-08-18T15:37:52.043Z,56.6
2022-08-18T15:39:55.910Z,56.8
2022-08-18T15:43:52.057Z,57.7
2022-08-18T15:45:56.579Z,57.6
2022-08-18T15:47:52.045Z,57.5
2022-08-18T15:49:52.080Z,56.5
2022-08-18T15:51:52.487Z,56.1
2022-08-18T15:53:52.056Z,55.7
2022-08-18T15:55:52.057Z,56.1
2022-08-18T15:57:56.967Z,56.4
2022-08-18T15:59:52.063Z,56.8
2022-08-18T16:01:52.073Z,56.7
2022-08-18T16:03:52.063Z,57
2022-08-18T16:05:52.859Z,57.4
2022-08-18T16:07:52.069Z,57.9
2022-08-18T16:09:52.070Z,58.2
2022-08-18T16:11:52.070Z,59
2022-08-18T16:13:52.072Z,59.7
2022-08-18T16:15:52.073Z,60.3
2022-08-18T16:17:52.289Z,61.4
2022-08-18T16:19:52.076Z,61.5
2022-08-18T16:21:52.078Z,60.7
2022-08-18T16:23:52.095Z,60.8
2022-08-18T16:25:52.077Z,60.4
2022-08-18T16:27:52.184Z,60.3
2022-08-18T16:29:52.083Z,60.1
2022-08-18T16:31:52.086Z,60.3
2022-08-18T16:33:52.086Z,60.2
2022-08-18T16:35:52.090Z,60.4
2022-08-18T16:37:52.163Z,59.7
2022-08-18T16:39:52.117Z,59.6
2022-08-18T16:41:52.090Z,61.6
2022-08-18T16:43:52.087Z,64.5
2022-08-18T16:45:52.091Z,65.6
2022-08-18T16:47:52.256Z,67.1
2022-08-18T16:49:53.445Z,68.5
2022-08-18T16:51:52.094Z,69.6
2022-08-18T16:53:52.095Z,71.3
2022-08-18T16:55:52.093Z,73.5
2022-08-18T16:57:53.493Z,73.2
2022-08-18T16:59:52.171Z,73.1
2022-08-18T17:01:52.133Z,73.3
2022-08-18T17:03:52.100Z,73.6
2022-08-18T17:05:52.102Z,73.8
2022-08-18T17:07:52.098Z,74.1
2022-08-18T17:09:52.160Z,73.6
2022-08-18T17:11:52.510Z,74
2022-08-18T17:13:52.102Z,73.5
2022-08-18T17:15:52.112Z,73.4
2022-08-18T17:17:52.108Z,73.7
2022-08-18T17:19:52.104Z,73.5
2022-08-18T17:21:52.110Z,73.5
2022-08-18T17:23:52.111Z,73.2
2022-08-18T17:25:52.115Z,73.3
2022-08-18T17:27:52.114Z,73.7
2022-08-18T17:29:52.116Z,73.7
2022-08-18T17:31:52.123Z,73.7
2022-08-18T17:33:52.122Z,73.7
2022-08-18T17:35:52.127Z,73.7
2022-08-18T17:37:52.132Z,73.7
2022-08-18T17:39:52.222Z,73.6
2022-08-18T17:41:52.137Z,73.5
2022-08-18T17:43:52.151Z,73.6
2022-08-18T17:45:52.129Z,73.8
2022-08-18T17:47:52.283Z,74.3
2022-08-18T17:49:54.368Z,74.3
2022-08-18T17:51:52.526Z,74.1
2022-08-18T17:53:52.143Z,73.9
2022-08-18T17:55:52.149Z,73.7
2022-08-18T17:57:56.594Z,73.4
2022-08-18T17:59:52.322Z,73.3
2022-08-18T18:01:52.230Z,73.3
2022-08-18T18:03:52.151Z,73.4
2022-08-18T18:05:52.158Z,73.4
2022-08-18T18:07:52.363Z,73.5
2022-08-18T18:09:52.153Z,73.6
2022-08-18T18:11:52.155Z,73.7
2022-08-18T18:13:52.156Z,73.6
2022-08-18T18:15:52.157Z,74
2022-08-18T18:17:52.414Z,73.9
2022-08-18T18:19:52.158Z,73.9
2022-08-18T18:21:53.307Z,73.9
2022-08-18T18:23:53.006Z,73.9
2022-08-18T18:25:52.166Z,74.5
2022-08-18T18:27:52.316Z,75.8
2022-08-18T18:29:52.165Z,78.4
2022-08-18T18:31:54.582Z,78.5
2022-08-18T18:33:52.168Z,79.4
2022-08-18T18:35:53.356Z,80
2022-08-18T18:37:52.398Z,81.5
2022-08-18T18:39:52.191Z,82.4
2022-08-18T18:41:52.176Z,83.1
2022-08-18T18:43:52.177Z,84.5
2022-08-18T18:45:52.174Z,85.1
2022-08-18T18:47:52.246Z,85.3
2022-08-18T18:49:52.178Z,84.9
2022-08-18T18:51:52.185Z,85.4
2022-08-18T18:53:52.200Z,86.2
2022-08-18T18:55:52.189Z,86.2
2022-08-18T18:57:52.382Z,86.4
2022-08-18T18:59:52.249Z,86.5
2022-08-18T19:01:52.189Z,86.5
2022-08-18T19:03:52.186Z,86.4
2022-08-18T19:05:52.192Z,86.5
2022-08-18T19:07:52.199Z,86.6
2022-08-18T19:09:52.199Z,87
2022-08-18T19:11:52.197Z,87.1
2022-08-18T19:13:54.251Z,88.1
2022-08-18T19:15:52.199Z,87.4
2022-08-18T19:17:52.198Z,87.6
2022-08-18T19:19:52.201Z,87.7
2022-08-18T19:22:03.004Z,87.9
2022-08-18T19:23:52.199Z,87.7
2022-08-18T19:25:52.214Z,87.5
2022-08-18T19:27:52.209Z,87.3
2022-08-18T19:29:52.208Z,87.4
2022-08-18T19:31:52.207Z,87.5
2022-08-18T19:33:52.213Z,87.3
2022-08-18T19:35:57.366Z,87.2
2022-08-18T19:37:52.213Z,87.2
2022-08-18T19:39:52.293Z,87.1
2022-08-18T19:41:52.230Z,87
2022-08-18T19:43:52.237Z,86.8
2022-08-18T19:45:52.249Z,86.8
2022-08-18T19:47:52.350Z,86.6
2022-08-18T19:49:52.240Z,86.4
2022-08-18T19:51:52.237Z,86.3
2022-08-18T19:53:52.852Z,86.2
2022-08-18T19:55:52.255Z,85.9
2022-08-18T19:57:52.250Z,85.9
2022-08-18T19:59:52.250Z,85.9
2022-08-18T20:01:52.249Z,85.7
2022-08-18T20:03:52.255Z,85.7
2022-08-18T20:05:52.259Z,85.6
2022-08-18T20:07:55.446Z,85.5
2022-08-18T20:09:52.266Z,85.4
2022-08-18T20:11:52.266Z,85.4
2022-08-18T20:13:52.269Z,85.2
2022-08-18T20:15:55.771Z,85.2
2022-08-18T20:17:52.288Z,85.5
2022-08-18T20:19:52.279Z,85.7
2022-08-18T20:21:52.281Z,85.4
2022-08-18T20:23:52.282Z,85.6
2022-08-18T20:25:52.285Z,85.4
2022-08-18T20:27:52.287Z,85.4
2022-08-18T20:29:52.299Z,85.5
2022-08-18T20:31:52.291Z,86
2022-08-18T20:33:52.304Z,86.4
2022-08-18T20:35:52.307Z,86.2
2022-08-18T20:37:52.317Z,85.9
2022-08-18T20:39:52.389Z,85.8
2022-08-18T20:41:52.314Z,85.8
2022-08-18T20:43:52.319Z,85.8
2022-08-18T20:45:52.318Z,85.8
2022-08-18T20:47:52.329Z,85.5
2022-08-18T20:49:52.328Z,85.6
2022-08-18T20:51:52.637Z,85.8
2022-08-18T20:53:52.339Z,85.6
2022-08-18T20:55:53.061Z,85.5
2022-08-18T20:57:55.243Z,85.5
2022-08-18T20:59:52.364Z,85.9
2022-08-18T21:01:52.365Z,85.7
2022-08-18T21:03:52.374Z,85.8
2022-08-18T21:05:52.367Z,85.7
2022-08-18T21:07:52.377Z,85.8
2022-08-18T21:09:52.384Z,85.7
2022-08-18T21:11:52.380Z,85.5
2022-08-18T21:13:52.770Z,85.4
2022-08-18T21:15:52.397Z,85.4
2022-08-18T21:17:56.414Z,85.6
2022-08-18T21:19:52.404Z,85.5
2022-08-18T21:21:52.401Z,85.4
2022-08-18T21:23:52.402Z,85.4
2022-08-18T21:25:52.403Z,85.6
2022-08-18T21:27:52.404Z,85.3
2022-08-18T21:29:52.410Z,85.6
2022-08-18T21:31:52.421Z,85.5
2022-08-18T21:33:52.423Z,85.7
2022-08-18T21:35:52.424Z,85.7
2022-08-18T21:37:52.431Z,85.8
2022-08-18T21:39:52.493Z,85.9
2022-08-18T21:41:52.439Z,85.9
2022-08-18T21:43:52.435Z,86
2022-08-18T21:45:55.684Z,86.1
2022-08-18T21:47:52.445Z,86.1
2022-08-18T21:49:52.446Z,86.1
2022-08-18T21:51:52.448Z,85.9
2022-08-18T21:53:52.454Z,85.9
2022-08-18T21:55:52.458Z,85.7
2022-08-18T21:57:52.465Z,85.9
2022-08-18T21:59:52.475Z,85.9
2022-08-18T22:01:52.477Z,86.1
2022-08-18T22:03:52.476Z,86.2
2022-08-18T22:05:55.220Z,86.1
2022-08-18T22:07:52.485Z,85.8
2022-08-18T22:09:52.491Z,85.6
2022-08-18T22:12:00.278Z,85.3
2022-08-18T22:13:52.511Z,85.6
2022-08-18T22:15:52.505Z,85.5
2022-08-18T22:17:52.518Z,85.4
2022-08-18T22:19:52.532Z,85.3
2022-08-18T22:21:52.523Z,84.9
2022-08-18T22:23:52.540Z,84.8
2022-08-18T22:25:52.541Z,84.6
2022-08-18T22:27:52.529Z,84.7
2022-08-18T22:29:52.537Z,84.8
2022-08-18T22:31:52.539Z,84.7
2022-08-18T22:33:52.538Z,84.7
2022-08-18T22:35:52.538Z,84.7
2022-08-18T22:37:52.546Z,84.8
2022-08-18T22:39:52.615Z,84.8
2022-08-18T22:41:52.591Z,85
2022-08-18T22:43:54.820Z,85
2022-08-18T22:45:52.603Z,85
2022-08-18T22:47:52.606Z,85.1
2022-08-18T22:49:52.607Z,85.4
2022-08-18T22:51:52.616Z,85.3
2022-08-18T22:53:52.615Z,85.4
2022-08-18T22:55:52.619Z,85.6
2022-08-18T22:57:54.373Z,85.9
2022-08-18T22:59:52.625Z,85.9
2022-08-18T23:01:52.625Z,85.9
2022-08-18T23:03:52.636Z,85.8
2022-08-18T23:05:52.636Z,86
2022-08-18T23:07:52.642Z,86.4
2022-08-18T23:09:52.639Z,86.2
2022-08-18T23:11:52.647Z,86.6
2022-08-18T23:13:52.657Z,86.5
2022-08-18T23:15:52.652Z,86.6
2022-08-18T23:17:52.655Z,86.9
2022-08-18T23:19:52.656Z,86.8
2022-08-18T23:21:52.657Z,86.8
2022-08-18T23:23:52.659Z,86.8
2022-08-18T23:25:52.669Z,86.9
2022-08-18T23:27:52.665Z,86.8
2022-08-18T23:29:52.663Z,86.8
2022-08-18T23:31:52.671Z,87.1
2022-08-18T23:33:52.681Z,87.1
2022-08-18T23:35:52.685Z,86.9
2022-08-18T23:37:52.694Z,87.2
2022-08-18T23:39:52.771Z,87.2
2022-08-18T23:41:52.704Z,87.1
2022-08-18T23:43:52.704Z,87.1
2022-08-18T23:45:52.709Z,87.4
2022-08-18T23:47:52.715Z,87.4
2022-08-18T23:49:52.721Z,87.4
2022-08-18T23:51:52.726Z,87.3
2022-08-18T23:53:52.725Z,87.4
2022-08-18T23:55:52.730Z,87.3
2022-08-18T23:57:52.739Z,87.4
2022-08-18T23:59:52.744Z,87.3
